Time;durP1;ratioP1;P1;durP2;ratioP2;P2;SDS_P1;SDS_P2;PMS_P1;PMS_P2;Temp;Humidity;BMP_temperature;BMP_pressure;BME280_temperature;BME280_humidity;BME280_pressure;Samples;Min_cycle;Max_cycle;Signal;HPM_P1;HPM_P2
2021/10/24 00:00:59;;;;;;;25.58;12.68;;;9.50;99.90;;;;;;5096514;28;20049;-82
2021/10/24 00:03:24;;;;;;;22.35;12.00;;;9.50;99.90;;;;;;5115699;27;20043;-82
2021/10/24 00:05:51;;;;;;;20.83;12.27;;;9.40;99.90;;;;;;5080141;27;20055;-82
2021/10/24 00:08:17;;;;;;;19.33;12.73;;;9.40;99.90;;;;;;5082841;27;20091;-82
2021/10/24 00:10:43;;;;;;;19.58;11.88;;;9.40;99.90;;;;;;5097011;27;20062;-82
2021/10/24 00:13:09;;;;;;;20.70;12.63;;;9.30;99.90;;;;;;5096217;28;20474;-82
2021/10/24 00:15:35;;;;;;;17.95;12.55;;;9.30;99.90;;;;;;5092335;28;20040;-82
2021/10/24 00:18:01;;;;;;;19.73;12.05;;;9.30;99.90;;;;;;5116683;27;20070;-82
2021/10/24 00:20:26;;;;;;;19.75;11.30;;;9.30;99.90;;;;;;5096992;27;20132;-82
2021/10/24 00:22:52;;;;;;;18.33;11.48;;;9.20;99.90;;;;;;5095894;28;20047;-82
2021/10/24 00:25:18;;;;;;;28.65;11.63;;;9.20;99.90;;;;;;5097835;27;20062;-82
2021/10/24 00:27:44;;;;;;;17.85;11.05;;;9.20;99.90;;;;;;5098390;28;20474;-82
2021/10/24 00:30:10;;;;;;;22.83;12.02;;;9.10;99.90;;;;;;5099360;28;20051;-82
2021/10/24 00:32:36;;;;;;;17.30;11.48;;;9.10;99.90;;;;;;5115671;27;20039;-82
2021/10/24 00:35:03;;;;;;;20.20;11.27;;;9.10;99.90;;;;;;5098352;28;20049;-82
2021/10/24 00:37:28;;;;;;;16.77;10.57;;;9.10;99.90;;;;;;5107878;28;20807;-82
2021/10/24 00:39:54;;;;;;;22.10;10.75;;;9.00;99.90;;;;;;5098139;28;20038;-82
2021/10/24 00:42:20;;;;;;;17.30;11.13;;;9.00;99.90;;;;;;5079709;28;20048;-82
2021/10/24 00:44:46;;;;;;;19.50;10.20;;;9.00;99.90;;;;;;5081346;28;20164;-82
2021/10/24 00:47:12;;;;;;;18.55;9.93;;;9.00;99.90;;;;;;5114600;28;20034;-82
2021/10/24 00:49:38;;;;;;;17.42;9.85;;;9.00;99.90;;;;;;5096798;28;20402;-82
2021/10/24 00:52:05;;;;;;;21.38;9.95;;;8.90;99.90;;;;;;5131598;27;20051;-82
2021/10/24 00:54:33;;;;;;;20.67;9.93;;;8.90;99.90;;;;;;5083428;28;20498;-82
2021/10/24 00:57:01;;;;;;;15.43;10.60;;;8.90;99.90;;;;;;5066573;28;20035;-82
2021/10/24 00:59:27;;;;;;;17.38;10.30;;;8.80;99.90;;;;;;5100093;28;20039;-82
2021/10/24 01:01:54;;;;;;;20.08;10.90;;;8.90;99.90;;;;;;5113947;28;20139;-82
2021/10/24 01:04:20;;;;;;;15.25;9.27;;;8.80;99.90;;;;;;5132885;27;20073;-82
2021/10/24 01:06:51;;;;;;;16.92;9.88;;;8.80;99.90;;;;;;5096119;28;20060;-82
2021/10/24 01:09:20;;;;;;;20.73;9.63;;;8.70;99.90;;;;;;5116902;28;20058;-82
2021/10/24 01:11:48;;;;;;;17.75;9.13;;;8.80;99.90;;;;;;5116857;28;20035;-82
2021/10/24 01:14:14;;;;;;;18.58;9.80;;;8.70;99.90;;;;;;5112795;28;20042;-82
2021/10/24 01:16:42;;;;;;;20.08;9.55;;;8.70;99.90;;;;;;5099586;28;20588;-82
2021/10/24 01:19:10;;;;;;;20.73;9.32;;;8.70;99.90;;;;;;5078766;28;20035;-82
2021/10/24 01:21:36;;;;;;;21.90;9.63;;;8.70;99.90;;;;;;5132074;27;20387;-82
2021/10/24 01:24:02;;;;;;;19.55;8.85;;;8.70;99.90;;;;;;5118525;27;20046;-82
2021/10/24 01:26:28;;;;;;;20.60;10.32;;;8.60;99.90;;;;;;5118797;27;20380;-82
2021/10/24 01:28:56;;;;;;;15.00;8.90;;;8.70;99.90;;;;;;5119702;27;20046;-81
2021/10/24 01:31:22;;;;;;;16.30;9.60;;;8.60;99.90;;;;;;5113627;27;20039;-82
2021/10/24 01:33:48;;;;;;;16.17;9.38;;;8.70;99.90;;;;;;5121595;27;20490;-82
2021/10/24 01:36:14;;;;;;;16.88;10.00;;;8.70;99.90;;;;;;5135368;27;20043;-82
2021/10/24 01:38:46;;;;;;;16.13;10.07;;;8.70;99.90;;;;;;5101901;27;20031;-82
2021/10/24 01:41:12;;;;;;;19.33;9.90;;;8.70;99.90;;;;;;5098432;27;20050;-82
2021/10/24 01:43:39;;;;;;;18.67;10.35;;;8.70;99.90;;;;;;5120933;27;20051;-82
2021/10/24 01:46:05;;;;;;;18.08;10.65;;;8.70;99.90;;;;;;5100724;27;20463;-82
2021/10/24 01:48:31;;;;;;;15.88;9.90;;;8.70;99.90;;;;;;5102704;27;20051;-82
2021/10/24 01:50:57;;;;;;;20.63;10.80;;;8.70;99.90;;;;;;5083395;27;20047;-82
2021/10/24 01:53:31;;;;;;;19.77;10.63;;;8.70;99.90;;;;;;5116261;27;20036;-82
2021/10/24 01:55:57;;;;;;;16.10;10.07;;;8.70;99.90;;;;;;5118546;27;20042;-82
2021/10/24 01:58:24;;;;;;;16.25;10.93;;;8.70;99.90;;;;;;5101189;27;20031;-82
2021/10/24 02:00:51;;;;;;;20.67;10.95;;;8.70;99.90;;;;;;5091545;27;20096;-82
2021/10/24 02:03:17;;;;;;;21.00;10.50;;;8.70;99.90;;;;;;5116936;27;20128;-82
2021/10/24 02:05:43;;;;;;;19.67;11.15;;;8.70;99.90;;;;;;5100019;27;20047;-81
2021/10/24 02:08:10;;;;;;;21.75;11.02;;;8.70;99.90;;;;;;5100802;27;20059;-81
2021/10/24 02:10:37;;;;;;;19.77;11.30;;;8.70;99.90;;;;;;5100489;27;20045;-82
2021/10/24 02:13:04;;;;;;;18.60;10.70;;;8.70;99.90;;;;;;5085165;27;20067;-82
2021/10/24 02:15:30;;;;;;;18.13;10.93;;;8.70;99.90;;;;;;5102071;27;20031;-82
2021/10/24 02:17:55;;;;;;;18.42;11.30;;;8.70;99.90;;;;;;5116928;27;20445;-82
2021/10/24 02:20:22;;;;;;;19.98;12.13;;;8.70;99.90;;;;;;5085785;27;20119;-82
2021/10/24 02:22:48;;;;;;;21.80;11.45;;;8.70;99.90;;;;;;5084701;27;20192;-82
2021/10/24 02:25:14;;;;;;;20.98;11.40;;;8.70;99.90;;;;;;5134882;27;20058;-82
2021/10/24 02:27:41;;;;;;;19.95;11.85;;;8.70;99.90;;;;;;5118354;27;20425;-82
2021/10/24 02:30:09;;;;;;;20.58;11.60;;;8.70;99.90;;;;;;5099469;27;20100;-82
2021/10/24 02:32:35;;;;;;;23.95;11.25;;;8.70;99.90;;;;;;5083870;27;20034;-82
2021/10/24 02:35:01;;;;;;;17.85;11.40;;;8.70;99.90;;;;;;5083357;27;20043;-82
2021/10/24 02:37:27;;;;;;;19.92;11.48;;;8.70;99.90;;;;;;5085158;27;20122;-82
2021/10/24 02:39:53;;;;;;;22.23;12.27;;;8.60;99.90;;;;;;5099704;27;20111;-82
2021/10/24 02:42:19;;;;;;;27.40;12.32;;;8.70;99.90;;;;;;5099920;27;20044;-82
2021/10/24 02:44:45;;;;;;;18.15;11.90;;;8.60;99.90;;;;;;5084666;27;20114;-82
2021/10/24 02:47:10;;;;;;;21.33;12.77;;;8.60;99.90;;;;;;5084351;27;20491;-82
2021/10/24 02:49:36;;;;;;;21.38;12.95;;;8.50;99.90;;;;;;5083331;27;20574;-82
2021/10/24 02:52:02;;;;;;;26.30;13.30;;;8.50;99.90;;;;;;5081301;27;20105;-82
2021/10/24 02:54:28;;;;;;;20.80;12.77;;;8.50;99.90;;;;;;5116154;27;20039;-82
2021/10/24 02:56:54;;;;;;;22.60;13.68;;;8.40;99.90;;;;;;5116052;27;20478;-82
2021/10/24 02:59:20;;;;;;;22.48;13.38;;;8.40;99.90;;;;;;5084494;27;20464;-82
2021/10/24 03:01:47;;;;;;;22.77;12.60;;;8.30;99.90;;;;;;5081597;27;20043;-82
2021/10/24 03:04:13;;;;;;;21.90;13.63;;;8.30;99.90;;;;;;5117257;27;20052;-82
2021/10/24 03:06:39;;;;;;;20.75;13.60;;;8.20;99.90;;;;;;5082692;27;20055;-82
2021/10/24 03:09:06;;;;;;;19.50;12.90;;;8.20;99.90;;;;;;5099935;27;20187;-82
2021/10/24 03:11:33;;;;;;;23.90;13.48;;;8.20;99.90;;;;;;5100459;27;20051;-82
2021/10/24 03:13:59;;;;;;;19.50;13.25;;;8.10;99.90;;;;;;5117648;27;20042;-81
2021/10/24 03:16:25;;;;;;;29.95;15.00;;;8.10;99.90;;;;;;5101973;27;20543;-82
2021/10/24 03:18:51;;;;;;;20.77;13.10;;;8.10;99.90;;;;;;5098909;28;20471;-82
2021/10/24 03:21:17;;;;;;;21.70;13.32;;;8.00;99.90;;;;;;5082933;27;20480;-82
2021/10/24 03:23:42;;;;;;;21.08;13.55;;;8.00;99.90;;;;;;5100965;27;20117;-82
2021/10/24 03:26:08;;;;;;;25.58;14.85;;;8.00;99.90;;;;;;5087824;28;20071;-81
2021/10/24 03:28:34;;;;;;;24.75;14.10;;;7.90;99.90;;;;;;5082712;27;20035;-82
2021/10/24 03:31:01;;;;;;;24.17;13.88;;;7.90;99.90;;;;;;5083204;27;20058;-82
2021/10/24 03:33:27;;;;;;;26.20;14.57;;;7.90;99.90;;;;;;5118107;27;20050;-81
2021/10/24 03:35:53;;;;;;;24.38;14.82;;;7.90;99.90;;;;;;5114423;27;20039;-82
2021/10/24 03:38:19;;;;;;;22.58;14.05;;;7.80;99.90;;;;;;5084331;27;20041;-82
2021/10/24 03:40:45;;;;;;;21.45;14.55;;;7.80;99.90;;;;;;5099353;27;20487;-82
2021/10/24 03:43:11;;;;;;;22.08;14.38;;;7.80;99.90;;;;;;5102391;27;20047;-82
2021/10/24 03:45:37;;;;;;;20.77;13.40;;;7.80;99.90;;;;;;5112879;27;20044;-82
2021/10/24 03:48:03;;;;;;;22.77;14.15;;;7.80;99.90;;;;;;5079645;28;20094;-82
2021/10/24 03:50:28;;;;;;;22.52;14.02;;;7.80;99.90;;;;;;5121897;27;20468;-82
2021/10/24 03:52:54;;;;;;;26.60;14.13;;;7.70;99.90;;;;;;5096794;28;20126;-82
2021/10/24 03:55:20;;;;;;;22.13;14.75;;;7.70;99.90;;;;;;5116870;27;20073;-82
2021/10/24 03:57:45;;;;;;;22.10;14.18;;;7.70;99.90;;;;;;5097717;27;20547;-82
2021/10/24 04:00:13;;;;;;;25.10;14.63;;;7.70;99.90;;;;;;5117739;27;20115;-82
2021/10/24 04:02:54;;;;;;;21.30;14.60;;;7.70;99.90;;;;;;5115612;27;20502;-82
2021/10/24 04:05:20;;;;;;;22.08;13.07;;;7.70;99.90;;;;;;5098276;27;20054;-82
2021/10/24 04:07:48;;;;;;;18.15;13.70;;;7.70;99.90;;;;;;5098401;27;20056;-81
2021/10/24 04:10:15;;;;;;;21.52;15.10;;;7.70;99.90;;;;;;5081861;28;20418;-81
2021/10/24 04:12:41;;;;;;;22.45;13.93;;;7.70;99.90;;;;;;5115710;27;20560;-82
2021/10/24 04:15:08;;;;;;;21.67;14.75;;;7.70;99.90;;;;;;5096681;27;20088;-82
2021/10/24 04:17:33;;;;;;;23.20;14.90;;;7.60;99.90;;;;;;5100444;27;20042;-82
2021/10/24 04:19:59;;;;;;;24.80;14.13;;;7.60;99.90;;;;;;5096887;27;20039;-82
2021/10/24 04:22:25;;;;;;;23.08;13.45;;;7.60;99.90;;;;;;5098933;27;20420;-82
2021/10/24 04:24:51;;;;;;;25.20;14.82;;;7.60;99.90;;;;;;5097845;27;20097;-82
2021/10/24 04:27:16;;;;;;;22.33;13.52;;;7.60;99.90;;;;;;5081680;27;20027;-82
2021/10/24 04:29:42;;;;;;;21.58;14.48;;;7.60;99.90;;;;;;5080236;27;20027;-82
2021/10/24 04:32:08;;;;;;;21.23;13.82;;;7.50;99.90;;;;;;5097280;28;20035;-82
2021/10/24 04:34:33;;;;;;;18.95;13.50;;;7.50;99.90;;;;;;5082551;28;20399;-82
2021/10/24 04:36:59;;;;;;;20.38;13.75;;;7.50;99.90;;;;;;5095391;28;20043;-82
2021/10/24 04:39:25;;;;;;;28.05;14.35;;;7.50;99.90;;;;;;5080674;28;20415;-82
2021/10/24 04:41:51;;;;;;;21.33;13.93;;;7.50;99.90;;;;;;5064726;28;20039;-82
2021/10/24 04:44:16;;;;;;;19.35;13.27;;;7.50;99.90;;;;;;5117465;28;20043;-82
2021/10/24 04:46:42;;;;;;;19.17;13.63;;;7.50;99.90;;;;;;5084428;28;20483;-82
2021/10/24 04:49:08;;;;;;;19.00;12.82;;;7.40;99.90;;;;;;5082701;28;20134;-82
2021/10/24 04:51:34;;;;;;;20.58;13.85;;;7.40;99.90;;;;;;5097486;28;20479;-82
2021/10/24 04:53:59;;;;;;;20.35;13.15;;;7.40;99.90;;;;;;5117316;28;20082;-82
2021/10/24 04:56:25;;;;;;;22.00;13.13;;;7.40;99.90;;;;;;5063708;28;20544;-82
2021/10/24 04:58:51;;;;;;;26.00;14.50;;;7.40;99.90;;;;;;5100761;27;20047;-82
2021/10/24 05:01:16;;;;;;;22.63;13.77;;;7.40;99.90;;;;;;5104958;27;20047;-82
2021/10/24 05:03:42;;;;;;;22.30;13.73;;;7.40;99.90;;;;;;5103684;27;20459;-82
2021/10/24 05:06:08;;;;;;;23.98;14.85;;;7.30;99.90;;;;;;5081837;27;20131;-82
2021/10/24 05:08:34;;;;;;;20.70;13.85;;;7.30;99.90;;;;;;5120489;27;20435;-82
2021/10/24 05:10:59;;;;;;;20.92;14.00;;;7.30;99.90;;;;;;5085787;27;20438;-82
2021/10/24 05:13:25;;;;;;;21.88;13.57;;;7.30;99.90;;;;;;5103504;27;20458;-82
2021/10/24 05:15:51;;;;;;;24.10;14.15;;;7.30;99.90;;;;;;5092078;27;20047;-82
2021/10/24 05:18:17;;;;;;;23.48;14.88;;;7.30;99.90;;;;;;5081910;27;20440;-82
2021/10/24 05:20:43;;;;;;;21.27;13.77;;;7.30;99.90;;;;;;5082483;27;20065;-81
2021/10/24 05:23:09;;;;;;;23.23;14.13;;;7.30;99.90;;;;;;5086905;27;20039;-81
2021/10/24 05:25:35;;;;;;;18.15;12.98;;;7.30;99.90;;;;;;5085903;27;20138;-82
2021/10/24 05:28:00;;;;;;;18.63;13.13;;;7.30;99.90;;;;;;5121350;27;20130;-82
2021/10/24 05:30:26;;;;;;;22.75;14.20;;;7.30;99.90;;;;;;5082079;27;20111;-82
2021/10/24 05:32:52;;;;;;;22.42;13.02;;;7.30;99.90;;;;;;5095392;27;20078;-82
2021/10/24 05:35:18;;;;;;;19.25;12.82;;;7.20;99.90;;;;;;5082688;27;20414;-82
2021/10/24 05:37:43;;;;;;;21.58;13.60;;;7.20;99.90;;;;;;5118730;27;20036;-82
2021/10/24 05:40:12;;;;;;;16.15;13.07;;;7.20;99.90;;;;;;5117217;27;20074;-82
2021/10/24 05:42:38;;;;;;;20.13;13.02;;;7.20;99.90;;;;;;5099130;27;20055;-82
2021/10/24 05:45:04;;;;;;;18.52;13.05;;;7.20;99.90;;;;;;5100637;27;20091;-82
2021/10/24 05:47:30;;;;;;;21.40;12.80;;;7.20;99.90;;;;;;5086350;27;20044;-82
2021/10/24 05:49:56;;;;;;;24.67;14.57;;;7.20;99.90;;;;;;5098730;27;20088;-82
2021/10/24 05:52:23;;;;;;;20.90;13.48;;;7.20;99.90;;;;;;5119035;27;20035;-82
2021/10/24 05:54:48;;;;;;;19.00;12.82;;;7.20;99.90;;;;;;5103183;27;20042;-82
2021/10/24 05:57:14;;;;;;;18.90;12.68;;;7.10;99.90;;;;;;5099412;28;20043;-82
2021/10/24 05:59:41;;;;;;;21.95;13.50;;;7.10;99.90;;;;;;5114274;27;20047;-82
2021/10/24 06:02:09;;;;;;;21.42;11.85;;;7.10;99.90;;;;;;5133410;27;20528;-82
2021/10/24 06:04:35;;;;;;;19.17;12.02;;;7.10;99.90;;;;;;5115635;27;20042;-82
2021/10/24 06:07:01;;;;;;;20.88;12.30;;;7.10;99.90;;;;;;5118462;27;20460;-82
2021/10/24 06:09:52;;;;;;;22.52;12.88;;;7.10;99.90;;;;;;5068298;27;20138;-82
2021/10/24 06:13:01;;;;;;;19.70;12.73;;;7.10;99.90;;;;;;5092889;27;20050;-82
2021/10/24 06:15:08;;;;;;;20.77;13.02;;;7.00;99.90;;;;;;5098239;27;20486;-82
2021/10/24 06:17:34;;;;;;;27.52;13.00;;;7.00;99.90;;;;;;5115934;27;20036;-82
2021/10/24 06:20:00;;;;;;;17.35;11.27;;;7.00;99.90;;;;;;5114651;27;20031;-82
2021/10/24 06:22:27;;;;;;;17.90;11.95;;;7.00;99.90;;;;;;5113767;27;20637;-82
2021/10/24 06:24:53;;;;;;;23.65;12.52;;;7.00;99.90;;;;;;5101680;27;20031;-82
2021/10/24 06:27:19;;;;;;;18.30;12.00;;;7.00;99.90;;;;;;5116334;27;20093;-82
2021/10/24 06:29:45;;;;;;;19.85;13.48;;;7.00;99.90;;;;;;5097415;27;20035;-82
2021/10/24 06:32:11;;;;;;;24.92;12.88;;;7.00;99.90;;;;;;5074729;27;20550;-82
2021/10/24 06:34:36;;;;;;;20.90;13.70;;;7.00;99.90;;;;;;5096961;27;20031;-82
2021/10/24 06:37:02;;;;;;;20.40;12.65;;;7.00;99.90;;;;;;5120549;27;20053;-82
2021/10/24 06:39:28;;;;;;;17.90;13.13;;;7.00;99.90;;;;;;5103444;27;20046;-82
2021/10/24 06:41:54;;;;;;;20.70;13.02;;;6.90;99.90;;;;;;5138337;27;21760;-82
2021/10/24 06:44:20;;;;;;;18.30;12.82;;;6.90;99.90;;;;;;5098399;27;20047;-82
2021/10/24 06:46:46;;;;;;;21.58;12.63;;;6.90;99.90;;;;;;5087826;27;20490;-82
2021/10/24 06:49:11;;;;;;;21.50;12.48;;;6.90;99.90;;;;;;5082404;27;20126;-82
2021/10/24 06:51:37;;;;;;;23.25;13.13;;;6.90;99.90;;;;;;5101956;27;20142;-82
2021/10/24 06:54:03;;;;;;;20.08;12.55;;;6.90;99.90;;;;;;5116679;27;20047;-83
2021/10/24 06:56:29;;;;;;;19.95;13.77;;;6.90;99.90;;;;;;5090279;28;20093;-82
2021/10/24 06:58:55;;;;;;;22.85;13.48;;;6.90;99.90;;;;;;5092096;28;20058;-82
2021/10/24 07:01:21;;;;;;;19.90;13.60;;;6.90;99.90;;;;;;5072859;28;20039;-82
2021/10/24 07:03:47;;;;;;;20.17;12.32;;;6.90;99.90;;;;;;5091784;28;20040;-82
2021/10/24 07:06:12;;;;;;;16.55;12.02;;;6.90;99.90;;;;;;5091771;28;20089;-82
2021/10/24 07:08:38;;;;;;;15.70;11.40;;;6.90;99.90;;;;;;5117098;27;20065;-82
2021/10/24 07:11:04;;;;;;;15.77;11.70;;;6.90;99.90;;;;;;5100270;28;20113;-83
2021/10/24 07:13:29;;;;;;;23.73;12.05;;;6.90;99.90;;;;;;5110562;27;20050;-84
2021/10/24 07:15:55;;;;;;;25.65;12.88;;;7.00;99.90;;;;;;5122037;27;20097;-85
2021/10/24 07:18:21;;;;;;;17.95;11.93;;;7.00;99.90;;;;;;5092514;28;20036;-85
2021/10/24 07:20:47;;;;;;;20.08;12.65;;;7.00;99.90;;;;;;5090793;27;20409;-85
2021/10/24 07:23:13;;;;;;;18.20;11.73;;;7.00;99.90;;;;;;5111500;27;20075;-84
2021/10/24 07:25:39;;;;;;;17.80;11.95;;;7.00;99.90;;;;;;5116391;27;20448;-84
2021/10/24 07:28:05;;;;;;;17.05;11.73;;;7.10;99.90;;;;;;5110234;27;20054;-85
2021/10/24 07:30:31;;;;;;;18.75;11.80;;;7.10;99.90;;;;;;5083909;28;20067;-84
2021/10/24 07:32:57;;;;;;;21.98;11.02;;;7.10;99.90;;;;;;5091488;28;20065;-83
2021/10/24 07:35:23;;;;;;;20.92;11.60;;;7.10;99.90;;;;;;5091489;28;20475;-84
2021/10/24 07:37:49;;;;;;;18.63;11.40;;;7.20;99.90;;;;;;5107726;28;20089;-84
2021/10/24 07:40:18;;;;;;;16.50;10.32;;;7.20;99.90;;;;;;5090605;28;20036;-87
2021/10/24 07:42:44;;;;;;;15.20;10.70;;;7.20;99.90;;;;;;5099728;27;20664;-85
2021/10/24 07:45:10;;;;;;;15.63;10.40;;;7.20;99.90;;;;;;5101351;28;20067;-86
2021/10/24 07:47:37;;;;;;;16.60;10.98;;;7.30;99.90;;;;;;5065990;28;20126;-86
2021/10/24 07:50:05;;;;;;;14.90;10.55;;;7.30;99.90;;;;;;5127514;27;20078;-86
2021/10/24 07:52:33;;;;;;;17.52;11.15;;;7.30;99.90;;;;;;5129594;27;20047;-85
2021/10/24 07:54:59;;;;;;;17.27;11.25;;;7.40;99.90;;;;;;5089022;28;20468;-86
2021/10/24 07:57:24;;;;;;;14.85;9.93;;;7.40;99.90;;;;;;5111753;27;20043;-83
2021/10/24 07:59:50;;;;;;;17.20;10.82;;;7.50;99.90;;;;;;5090712;28;21128;-83
2021/10/24 08:02:20;;;;;;;15.73;10.20;;;7.50;99.90;;;;;;5091282;28;20070;-83
2021/10/24 08:04:50;;;;;;;18.85;10.75;;;7.50;99.90;;;;;;5091643;28;20035;-86
2021/10/24 08:07:17;;;;;;;16.70;10.65;;;7.60;99.90;;;;;;5095062;28;20387;-84
2021/10/24 08:09:44;;;;;;;16.52;10.05;;;7.60;99.90;;;;;;5089996;28;20051;-82
2021/10/24 08:12:10;;;;;;;14.40;9.60;;;7.60;99.90;;;;;;5084675;27;20047;-83
2021/10/24 08:14:36;;;;;;;14.80;9.60;;;7.70;99.90;;;;;;5099919;28;20043;-87
2021/10/24 08:17:06;;;;;;;17.77;9.27;;;7.70;99.90;;;;;;5111279;27;20478;-89
2021/10/24 08:19:32;;;;;;;11.43;9.50;;;7.70;99.90;;;;;;5110878;27;20047;-91
2021/10/24 08:21:58;;;;;;;15.82;9.13;;;7.80;99.90;;;;;;5077742;28;20044;-88
2021/10/24 08:24:24;;;;;;;16.70;8.95;;;7.80;99.90;;;;;;5108373;28;20048;-89
2021/10/24 08:26:50;;;;;;;12.77;9.13;;;7.80;99.90;;;;;;5090838;28;20090;-89
2021/10/24 08:29:16;;;;;;;13.68;8.98;;;7.90;99.90;;;;;;5090352;28;20079;-88
2021/10/24 08:31:49;;;;;;;13.75;9.23;;;7.90;99.90;;;;;;5098452;28;20391;-82
2021/10/24 08:34:15;;;;;;;;;;;8.00;99.90;;;;;;5142174;27;20040;-83
2021/10/24 08:36:41;;;;;;;12.70;8.70;;;8.00;99.90;;;;;;5107863;28;20003;-82
2021/10/24 08:39:09;;;;;;;22.00;8.88;;;8.00;99.90;;;;;;5124663;28;20065;-82
2021/10/24 08:41:39;;;;;;;17.08;8.82;;;8.00;99.90;;;;;;5090333;28;20044;-82
2021/10/24 08:44:05;;;;;;;15.02;9.02;;;8.10;99.90;;;;;;5124776;28;20051;-82
2021/10/24 08:46:32;;;;;;;18.38;9.57;;;8.10;99.90;;;;;;5141799;27;20035;-83
2021/10/24 08:48:58;;;;;;;12.75;8.45;;;8.20;99.90;;;;;;5142259;27;20040;-82
2021/10/24 08:51:26;;;;;;;16.75;8.68;;;8.20;99.90;;;;;;5090611;28;20067;-82
2021/10/24 08:53:52;;;;;;;15.88;9.48;;;8.30;99.90;;;;;;5107609;28;20048;-82
2021/10/24 08:56:21;;;;;;;12.45;8.00;;;8.30;99.90;;;;;;5106549;28;20510;-82
2021/10/24 08:58:48;;;;;;;15.05;7.88;;;8.30;99.90;;;;;;5109210;28;20068;-83
2021/10/24 09:01:15;;;;;;;13.32;8.65;;;8.40;99.90;;;;;;5070621;28;20036;-82
2021/10/24 09:04:18;;;;;;;14.50;8.90;;;8.40;99.90;;;;;;5098960;28;20047;-82
2021/10/24 09:07:00;;;;;;;13.25;7.30;;;8.50;99.90;;;;;;5107713;28;20498;-83
2021/10/24 09:09:34;;;;;;;16.23;8.23;;;8.50;99.90;;;;;;5107511;28;20066;-82
2021/10/24 09:12:08;;;;;;;13.52;8.15;;;8.60;99.90;;;;;;5106052;28;20048;-82
2021/10/24 09:14:47;;;;;;;11.55;7.90;;;8.60;99.90;;;;;;5090594;28;20434;-82
2021/10/24 09:17:18;;;;;;;12.20;7.57;;;8.70;99.90;;;;;;5122589;28;20051;-82
2021/10/24 09:19:46;;;;;;;13.45;8.43;;;8.70;99.90;;;;;;5117206;28;20035;-82
2021/10/24 09:22:19;;;;;;;15.07;8.77;;;8.70;99.90;;;;;;5086699;28;20081;-82
2021/10/24 09:25:15;;;;;;;13.70;7.93;;;8.80;99.90;;;;;;5108766;28;20075;-82
2021/10/24 09:28:03;;;;;;;15.52;8.30;;;8.80;99.90;;;;;;5104521;28;20043;-82
2021/10/24 09:30:36;;;;;;;15.10;8.50;;;8.90;99.90;;;;;;5109420;28;20052;-82
2021/10/24 09:33:10;;;;;;;14.85;9.00;;;8.90;99.90;;;;;;5105954;28;20043;-83
2021/10/24 09:35:37;;;;;;;15.57;7.93;;;9.00;99.90;;;;;;5104888;28;20038;-83
2021/10/24 09:38:05;;;;;;;16.02;8.70;;;9.10;99.90;;;;;;5105911;28;20031;-82
2021/10/24 09:40:42;;;;;;;15.68;8.68;;;9.10;99.90;;;;;;5088806;28;20036;-83
2021/10/24 09:43:20;;;;;;;13.13;7.95;;;9.20;99.90;;;;;;5105652;28;20123;-83
2021/10/24 09:46:14;;;;;;;17.50;7.53;;;9.20;99.90;;;;;;5092499;28;20043;-82
2021/10/24 09:48:47;;;;;;;18.05;9.25;;;9.30;99.90;;;;;;5096508;28;20066;-82
2021/10/24 09:51:17;;;;;;;12.13;8.00;;;9.30;99.90;;;;;;5093985;28;20067;-82
2021/10/24 09:53:46;;;;;;;223.48;20.60;;;9.30;99.90;;;;;;5109679;28;20407;-82
2021/10/24 09:56:18;;;;;;;20.73;11.63;;;9.40;99.90;;;;;;5091558;28;20039;-82
2021/10/24 09:58:46;;;;;;;33.20;11.38;;;9.70;99.90;;;;;;5091702;28;20043;-82
2021/10/24 10:01:14;;;;;;;37.75;16.10;;;9.60;99.90;;;;;;5091686;28;20090;-83
2021/10/24 10:03:41;;;;;;;23.63;12.25;;;10.10;99.90;;;;;;5092066;28;20043;-83
2021/10/24 10:06:07;;;;;;;21.45;12.43;;;10.30;99.90;;;;;;5116436;27;20126;-82
2021/10/24 10:08:33;;;;;;;20.98;11.85;;;11.30;99.90;;;;;;5118443;27;20060;-84
2021/10/24 10:11:21;;;;;;;18.90;10.05;;;10.00;99.90;;;;;;5072675;28;20495;-84
2021/10/24 10:14:06;;;;;;;21.88;10.88;;;10.70;99.90;;;;;;5107644;28;20043;-84
2021/10/24 10:16:38;;;;;;;16.05;11.07;;;9.30;99.90;;;;;;5109542;28;20044;-83
2021/10/24 10:19:06;;;;;;;17.50;11.45;;;10.10;99.90;;;;;;5084746;28;20115;-84
2021/10/24 10:21:34;;;;;;;19.05;11.45;;;10.10;99.90;;;;;;5114189;27;20066;-82
2021/10/24 10:24:05;;;;;;;23.63;12.05;;;8.70;99.90;;;;;;5108274;28;20043;-85
2021/10/24 10:26:40;;;;;;;17.73;9.75;;;10.00;99.90;;;;;;5111259;27;20039;-86
2021/10/24 10:29:08;;;;;;;17.42;10.40;;;10.00;99.90;;;;;;5128888;27;20071;-83
2021/10/24 10:31:35;;;;;;;19.17;10.50;;;9.00;99.90;;;;;;5108841;28;20155;-85
2021/10/24 10:34:10;;;;;;;19.65;9.57;;;9.20;99.90;;;;;;5115805;27;20039;-85
2021/10/24 10:36:45;;;;;;;16.35;9.95;;;9.60;99.90;;;;;;5083571;28;20096;-85
2021/10/24 10:39:36;;;;;;;21.58;9.45;;;9.20;99.90;;;;;;5110003;28;20051;-85
2021/10/24 10:42:24;;;;;;;17.70;10.40;;;8.70;99.90;;;;;;5095294;28;20047;-84
2021/10/24 10:45:14;;;;;;;18.50;10.40;;;9.50;99.90;;;;;;5108706;28;20062;-83
2021/10/24 10:47:56;;;;;;;19.50;10.95;;;8.90;99.90;;;;;;5108286;28;20503;-83
2021/10/24 10:50:30;;;;;;;14.50;8.95;;;8.60;99.90;;;;;;5108016;28;20176;-84
2021/10/24 10:52:57;;;;;;;16.67;9.57;;;8.60;99.90;;;;;;5109473;28;20044;-83
2021/10/24 10:55:25;;;;;;;12.98;8.18;;;9.20;99.90;;;;;;5090551;28;20040;-84
2021/10/24 10:57:51;;;;;;;20.15;10.73;;;8.80;99.90;;;;;;5075486;28;20270;-84
2021/10/24 11:00:35;;;;;;;18.75;10.63;;;8.80;99.90;;;;;;5074692;28;20091;-84
2021/10/24 11:03:01;;;;;;;15.13;9.35;;;8.80;99.90;;;;;;5090619;28;20103;-84
2021/10/24 11:05:34;;;;;;;19.08;9.57;;;9.70;99.90;;;;;;5107305;28;20043;-86
2021/10/24 11:08:00;;;;;;;13.50;9.00;;;8.90;99.90;;;;;;5090501;28;20055;-84
2021/10/24 11:10:46;;;;;;;14.80;9.48;;;9.40;99.90;;;;;;5072825;28;20050;-84
2021/10/24 11:13:33;;;;;;;17.10;8.63;;;9.90;99.90;;;;;;5107573;28;20090;-84
2021/10/24 11:16:29;;;;;;;16.77;8.02;;;9.80;99.90;;;;;;5108105;28;20133;-83
2021/10/24 11:18:55;;;;;;;19.85;9.07;;;8.90;99.90;;;;;;5092340;28;20043;-84
2021/10/24 11:21:31;;;;;;;16.90;8.52;;;9.90;99.90;;;;;;5067600;28;20062;-83
2021/10/24 11:23:57;;;;;;;13.27;8.15;;;9.10;99.90;;;;;;5097986;28;20051;-83
2021/10/24 11:26:24;;;;;;;17.45;8.05;;;9.50;99.90;;;;;;5125349;27;20047;-84
2021/10/24 11:28:49;;;;;;;22.58;8.82;;;10.30;99.90;;;;;;5091857;28;20051;-84
2021/10/24 11:31:21;;;;;;;21.30;8.75;;;10.50;99.90;;;;;;5108065;28;20043;-85
2021/10/24 11:33:51;;;;;;;13.02;7.38;;;9.60;99.90;;;;;;5127191;27;20173;-83
2021/10/24 11:36:28;;;;;;;15.40;8.02;;;9.70;99.90;;;;;;5108538;28;20040;-81
2021/10/24 11:38:56;;;;;;;18.52;8.60;;;9.90;99.90;;;;;;5107848;28;20071;-81
2021/10/24 11:41:22;;;;;;;17.42;8.13;;;10.40;99.90;;;;;;5074310;28;20076;-80
2021/10/24 11:44:03;;;;;;;14.10;7.60;;;10.20;99.90;;;;;;5058774;28;20380;-81
2021/10/24 11:46:29;;;;;;;17.13;8.48;;;9.40;99.90;;;;;;5108390;28;20040;-81
2021/10/24 11:49:01;;;;;;;18.90;9.85;;;9.20;99.90;;;;;;5075074;28;20503;-83
2021/10/24 11:51:28;;;;;;;;;;;10.00;99.90;;;;;;5108527;28;20052;-80
2021/10/24 11:53:54;;;;;;;15.30;8.10;;;10.10;99.90;;;;;;5126282;27;20297;-79
2021/10/24 11:56:36;;;;;;;16.60;8.85;;;10.10;99.90;;;;;;5109455;27;20044;-79
2021/10/24 12:01:42;;;;;;;67.82;11.25;;;9.30;99.90;;;;;;5104576;28;20094;-80
2021/10/24 12:04:13;;;;;;;30.45;12.77;;;9.80;99.90;;;;;;5105020;28;20048;-81
2021/10/24 12:06:54;;;;;;;31.98;13.15;;;10.20;99.90;;;;;;5108290;28;20043;-84
2021/10/24 12:09:40;;;;;;;36.92;15.02;;;9.40;99.90;;;;;;5090923;28;20067;-83
2021/10/24 12:12:12;;;;;;;42.30;15.52;;;10.10;99.90;;;;;;5107316;27;20051;-83
2021/10/24 12:14:59;;;;;;;38.53;14.70;;;9.30;99.90;;;;;;5092526;28;20046;-83
2021/10/24 12:17:27;;;;;;;100.20;16.73;;;9.30;99.90;;;;;;5107677;28;20096;-85
2021/10/24 12:20:18;;;;;;;57.53;16.73;;;10.00;99.90;;;;;;5087386;28;20047;-87
2021/10/24 12:22:46;;;;;;;51.17;15.98;;;9.40;99.90;;;;;;5091228;28;20395;-88
2021/10/24 12:25:19;;;;;;;47.30;18.77;;;9.90;99.90;;;;;;5074523;28;20075;-88
2021/10/24 12:28:05;;;;;;;50.03;17.63;;;9.30;99.90;;;;;;5092036;28;20395;-87
2021/10/24 12:30:32;;;;;;;55.88;16.60;;;9.30;99.90;;;;;;5103813;28;20047;-86
2021/10/24 12:33:01;;;;;;;73.03;19.38;;;10.00;99.90;;;;;;5122018;27;20039;-85
2021/10/24 12:35:28;;;;;;;133.10;18.88;;;9.50;99.90;;;;;;5093386;28;20044;-84
2021/10/24 12:38:01;;;;;;;48.08;9.38;;;10.50;99.90;;;;;;5105572;28;20078;-77
2021/10/24 12:40:31;;;;;;;23.38;10.57;;;10.20;99.90;;;;;;5123545;27;20120;-76
2021/10/24 12:43:11;;;;;;;50.25;12.02;;;;;;;;;;5104367;27;20031;-79
2021/10/24 12:46:01;;;;;;;25.55;10.27;;;12.20;99.90;;;;;;5108510;28;20047;-78
2021/10/24 12:48:44;;;;;;;15.68;9.05;;;10.30;99.90;;;;;;5116922;28;20031;-76
2021/10/24 12:51:19;;;;;;;18.30;8.93;;;11.20;99.90;;;;;;5089758;28;20047;-76